createdAt,value
2018-11-13T00:00:21.146Z,98.71
2018-11-13T00:02:57.123Z,98.79
2018-11-13T00:05:29.995Z,98.84
2018-11-13T00:08:14.692Z,98.91
2018-11-13T00:10:48.806Z,99.02
2018-11-13T00:13:23.419Z,99.06
2018-11-13T00:15:56.611Z,99.00
2018-11-13T00:18:30.616Z,98.92
2018-11-13T00:21:12.021Z,98.86
2018-11-13T00:23:46.789Z,98.81
2018-11-13T00:26:21.226Z,98.78
2018-11-13T00:28:56.731Z,98.83
2018-11-13T00:31:30.335Z,98.93
2018-11-13T00:34:04.736Z,98.98
2018-11-13T00:36:37.639Z,99.03
2018-11-13T00:39:17.474Z,99.21
2018-11-13T00:41:53.300Z,99.39
2018-11-13T00:44:26.877Z,99.51
2018-11-13T00:47:00.480Z,99.61
2018-11-13T00:49:34.999Z,99.74
2018-11-13T00:52:10.968Z,99.82
2018-11-13T00:54:44.977Z,99.93
2018-11-13T00:57:18.708Z,100.00
2018-11-13T00:59:57.191Z,100.00
2018-11-13T01:02:29.884Z,100.00
2018-11-13T01:05:09.701Z,100.00
2018-11-13T01:07:44.191Z,100.00
2018-11-13T01:10:18.842Z,100.00
2018-11-13T01:12:53.396Z,99.98
2018-11-13T01:15:26.113Z,99.98
2018-11-13T01:17:59.385Z,99.89
2018-11-13T01:20:32.830Z,99.81
2018-11-13T01:23:05.484Z,99.79
2018-11-13T01:25:38.214Z,99.70
2018-11-13T01:28:13.625Z,99.60
2018-11-13T01:30:46.863Z,99.54
2018-11-13T01:33:20.151Z,99.46
2018-11-13T01:35:54.670Z,99.41
2018-11-13T01:38:28.227Z,99.36
2018-11-13T01:41:02.471Z,99.29
2018-11-13T01:43:36.314Z,99.30
2018-11-13T01:46:10.122Z,99.41
2018-11-13T01:48:43.518Z,99.52
2018-11-13T01:51:19.831Z,99.61
2018-11-13T01:53:53.221Z,99.59
2018-11-13T01:56:25.858Z,99.60
2018-11-13T01:59:00.901Z,99.66
2018-11-13T02:01:35.186Z,99.77
2018-11-13T02:04:13.287Z,99.82
2018-11-13T02:06:46.083Z,99.84
2018-11-13T02:09:18.673Z,99.89
2018-11-13T02:11:52.379Z,99.87
2018-11-13T02:14:25.008Z,99.84
2018-11-13T02:17:00.561Z,99.88
2018-11-13T02:19:34.930Z,99.99
2018-11-13T02:22:08.422Z,100.00
2018-11-13T02:24:41.684Z,100.00
2018-11-13T02:27:14.277Z,100.00
2018-11-13T02:29:49.086Z,100.00
2018-11-13T02:32:24.724Z,100.00
2018-11-13T02:34:57.283Z,100.00
2018-11-13T02:37:31.214Z,100.00
2018-11-13T02:40:04.258Z,100.00
2018-11-13T02:42:38.823Z,100.00
2018-11-13T02:45:16.482Z,100.00
2018-11-13T02:47:51.212Z,100.00
2018-11-13T02:50:25.348Z,100.00
2018-11-13T02:52:58.015Z,100.00
2018-11-13T02:55:31.088Z,100.00
2018-11-13T02:58:05.576Z,100.00
2018-11-13T03:00:54.247Z,100.00
2018-11-13T03:03:28.302Z,100.00
2018-11-13T03:06:01.220Z,100.00
2018-11-13T03:08:35.479Z,100.00
2018-11-13T03:11:09.337Z,100.00
2018-11-13T03:13:42.499Z,100.00
2018-11-13T03:16:15.515Z,100.00
2018-11-13T03:18:49.966Z,100.00
2018-11-13T03:21:24.841Z,100.00
2018-11-13T03:23:57.459Z,100.00
2018-11-13T03:26:31.528Z,100.00
2018-11-13T03:29:07.888Z,100.00
2018-11-13T03:31:42.675Z,100.00
2018-11-13T03:34:20.825Z,100.00
2018-11-13T03:36:54.065Z,100.00
2018-11-13T03:39:26.963Z,100.00
2018-11-13T03:42:01.694Z,100.00
2018-11-13T03:44:36.891Z,100.00
2018-11-13T03:47:13.265Z,100.00
2018-11-13T03:49:46.537Z,100.00
2018-11-13T03:52:19.777Z,100.00
2018-11-13T03:54:53.228Z,100.00
2018-11-13T03:57:27.551Z,100.00
2018-11-13T04:00:06.052Z,100.00
2018-11-13T04:02:40.636Z,100.00
2018-11-13T04:05:15.423Z,100.00
2018-11-13T04:07:49.950Z,99.84
2018-11-13T04:10:24.055Z,99.63
2018-11-13T04:12:56.927Z,99.37
2018-11-13T04:15:30.958Z,99.09
2018-11-13T04:18:03.645Z,98.77
2018-11-13T04:20:38.932Z,98.17
2018-11-13T04:23:12.717Z,97.77
2018-11-13T04:25:45.908Z,97.26
2018-11-13T04:28:21.543Z,96.95
2018-11-13T04:30:54.300Z,96.51
2018-11-13T04:33:39.920Z,96.21
2018-11-13T04:36:16.969Z,95.91
2018-11-13T04:38:49.900Z,95.70
2018-11-13T04:41:23.011Z,95.68
2018-11-13T04:43:55.503Z,95.78
2018-11-13T04:46:28.417Z,95.87
2018-11-13T04:49:03.006Z,95.94
2018-11-13T04:51:35.603Z,95.99
2018-11-13T04:54:08.068Z,95.91
2018-11-13T04:56:42.995Z,95.67
2018-11-13T04:59:16.162Z,95.25
2018-11-13T05:01:48.737Z,94.64
2018-11-13T05:04:22.920Z,94.08
2018-11-13T05:06:55.763Z,93.54
2018-11-13T05:09:35.536Z,93.11
2018-11-13T05:12:08.304Z,92.75
2018-11-13T05:14:41.980Z,92.52
2018-11-13T05:17:14.657Z,92.32
2018-11-13T05:19:47.428Z,91.90
2018-11-13T05:22:20.433Z,91.76
2018-11-13T05:24:53.224Z,91.47
2018-11-13T05:27:26.602Z,91.12
2018-11-13T05:29:59.600Z,90.86
2018-11-13T05:32:36.768Z,90.41
2018-11-13T05:35:16.042Z,90.12
2018-11-13T05:37:48.923Z,89.90
2018-11-13T05:40:23.914Z,89.56
2018-11-13T05:42:57.576Z,88.99
2018-11-13T05:45:31.032Z,88.79
2018-11-13T05:48:04.779Z,88.43
2018-11-13T05:50:37.231Z,88.16
2018-11-13T05:53:10.243Z,88.03
2018-11-13T05:55:43.954Z,88.06
2018-11-13T05:58:17.411Z,88.29
2018-11-13T06:00:50.183Z,88.43
2018-11-13T06:03:23.241Z,88.42
2018-11-13T06:05:56.321Z,88.32
2018-11-13T06:08:30.397Z,88.44
2018-11-13T06:11:03.368Z,88.45
2018-11-13T06:13:36.197Z,88.44
2018-11-13T06:16:09.627Z,88.49
2018-11-13T06:18:44.538Z,88.52
2018-11-13T06:21:17.162Z,88.53
2018-11-13T06:23:50.445Z,88.50
2018-11-13T06:26:25.877Z,88.41
2018-11-13T06:29:00.810Z,88.07
2018-11-13T06:31:33.954Z,88.00
2018-11-13T06:34:06.695Z,87.79
2018-11-13T06:36:40.740Z,87.66
2018-11-13T06:39:14.172Z,87.62
2018-11-13T06:41:47.271Z,87.71
2018-11-13T06:44:21.986Z,87.61
2018-11-13T06:46:55.000Z,87.51
2018-11-13T06:49:33.193Z,87.18
2018-11-13T06:52:06.229Z,87.13
2018-11-13T06:55:31.864Z,87.15
2018-11-13T06:58:05.841Z,87.57
2018-11-13T07:00:38.976Z,87.61
2018-11-13T07:03:11.788Z,87.99
2018-11-13T07:05:48.281Z,88.19
2018-11-13T07:08:22.240Z,88.64
2018-11-13T07:10:55.235Z,88.71
2018-11-13T07:13:27.678Z,88.67
2018-11-13T07:16:05.135Z,88.47
2018-11-13T07:18:38.197Z,88.30
2018-11-13T07:21:10.777Z,87.77
2018-11-13T07:23:45.074Z,86.83
2018-11-13T07:26:24.204Z,86.32
2018-11-13T07:28:57.798Z,86.06
2018-11-13T07:31:31.480Z,85.71
2018-11-13T07:34:06.547Z,85.58
2018-11-13T07:36:40.848Z,84.91
2018-11-13T07:39:13.967Z,83.85
2018-11-13T07:41:51.419Z,83.34
2018-11-13T07:44:24.344Z,83.37
2018-11-13T07:46:58.207Z,83.15
2018-11-13T07:49:35.515Z,83.42
2018-11-13T07:52:11.464Z,83.50
2018-11-13T07:54:45.452Z,83.19
2018-11-13T07:57:21.734Z,82.92
2018-11-13T07:59:56.067Z,83.39
2018-11-13T08:02:28.755Z,83.21
2018-11-13T08:05:35.945Z,83.26
2018-11-13T08:08:09.683Z,83.34
2018-11-13T08:10:43.857Z,83.53
2018-11-13T08:13:19.462Z,83.78
2018-11-13T08:15:56.775Z,83.69
2018-11-13T08:18:32.164Z,83.62
2018-11-13T08:21:07.856Z,83.24
2018-11-13T08:23:43.331Z,83.49
2018-11-13T08:26:16.049Z,83.39
2018-11-13T08:28:52.432Z,83.46
2018-11-13T08:31:26.352Z,83.52
2018-11-13T08:33:59.775Z,83.45
2018-11-13T08:36:33.980Z,83.43
2018-11-13T08:39:13.076Z,83.59
2018-11-13T08:41:50.455Z,83.54
2018-11-13T08:44:35.237Z,83.68
2018-11-13T08:47:09.775Z,83.62
2018-11-13T08:49:45.959Z,83.43
2018-11-13T08:52:22.196Z,83.45
2018-11-13T08:54:56.374Z,83.07
2018-11-13T08:57:31.937Z,82.90
2018-11-13T09:00:30.004Z,83.03
2018-11-13T09:03:03.727Z,82.83
2018-11-13T09:05:40.107Z,82.64
2018-11-13T09:08:22.830Z,81.27
2018-11-13T09:10:58.534Z,80.43
2018-11-13T09:13:35.697Z,79.14
2018-11-13T09:16:14.563Z,78.89
2018-11-13T09:18:51.389Z,78.77
2018-11-13T09:21:30.407Z,78.00
2018-11-13T09:24:04.394Z,78.26
2018-11-13T09:26:40.344Z,77.97
2018-11-13T09:29:21.277Z,76.95
2018-11-13T09:31:56.402Z,77.24
2018-11-13T09:34:31.190Z,76.65
2018-11-13T09:37:04.485Z,76.11
2018-11-13T09:39:41.204Z,76.08
2018-11-13T09:42:16.067Z,75.15
2018-11-13T09:44:51.322Z,74.95
2018-11-13T09:47:26.368Z,74.67
2018-11-13T09:50:10.009Z,73.38
2018-11-13T09:52:46.876Z,72.67
2018-11-13T09:55:22.674Z,72.83
2018-11-13T09:57:56.453Z,72.70
2018-11-13T10:00:30.787Z,72.60
2018-11-13T10:03:06.346Z,71.88
2018-11-13T10:05:40.321Z,71.82
2018-11-13T10:08:15.783Z,72.31
2018-11-13T10:10:51.231Z,72.52
2018-11-13T10:13:27.460Z,72.71
2018-11-13T10:16:02.204Z,71.91
2018-11-13T10:18:35.360Z,71.95
2018-11-13T10:21:09.873Z,71.76
2018-11-13T10:23:44.072Z,71.84
2018-11-13T10:26:18.472Z,70.53
2018-11-13T10:28:52.576Z,70.22
2018-11-13T10:31:26.117Z,70.03
2018-11-13T10:34:05.028Z,69.60
2018-11-13T10:36:40.215Z,68.65
2018-11-13T10:39:13.927Z,68.64
2018-11-13T10:41:46.868Z,69.00
2018-11-13T10:44:20.610Z,69.25
2018-11-13T10:47:08.562Z,69.35
2018-11-13T10:49:43.032Z,69.75
2018-11-13T10:52:18.643Z,68.78
2018-11-13T10:54:56.376Z,68.84
2018-11-13T10:57:30.104Z,67.26
2018-11-13T11:00:23.043Z,67.23
2018-11-13T11:03:11.092Z,66.09
2018-11-13T11:05:44.755Z,66.24
2018-11-13T11:08:18.435Z,65.29
2018-11-13T11:10:52.056Z,65.64
2018-11-13T11:13:27.591Z,65.56
2018-11-13T11:16:02.068Z,65.88
2018-11-13T11:18:36.216Z,65.59
2018-11-13T11:21:10.352Z,64.79
2018-11-13T11:23:43.718Z,65.13
2018-11-13T11:26:21.286Z,65.23
2018-11-13T11:28:54.074Z,64.92
2018-11-13T11:31:35.764Z,65.30
2018-11-13T11:34:09.876Z,64.96
2018-11-13T11:36:44.764Z,65.23
2018-11-13T11:39:21.764Z,64.98
2018-11-13T11:41:55.734Z,65.46
2018-11-13T11:44:29.334Z,65.46
2018-11-13T11:47:03.376Z,65.03
2018-11-13T11:49:38.280Z,65.26
2018-11-13T11:52:13.030Z,65.34
2018-11-13T11:54:47.616Z,65.20
2018-11-13T11:57:21.999Z,65.46
2018-11-13T11:59:55.761Z,65.68
2018-11-13T12:02:34.783Z,65.91
2018-11-13T12:05:10.043Z,66.28
2018-11-13T12:07:45.186Z,66.58
2018-11-13T12:10:19.360Z,66.41
2018-11-13T12:12:53.943Z,66.26
2018-11-13T12:15:28.292Z,66.21
2018-11-13T12:18:14.571Z,66.68
2018-11-13T12:20:50.191Z,67.07
2018-11-13T12:23:27.305Z,67.75
2018-11-13T12:26:01.754Z,67.69
2018-11-13T12:28:40.234Z,67.66
2018-11-13T12:31:15.837Z,65.01
2018-11-13T12:33:50.772Z,64.95
2018-11-13T12:36:26.252Z,63.29
2018-11-13T12:38:59.621Z,62.78
2018-11-13T12:41:34.156Z,62.33
2018-11-13T12:44:07.064Z,60.04
2018-11-13T12:46:41.840Z,60.03
2018-11-13T12:49:16.078Z,59.71
2018-11-13T12:51:57.288Z,59.77
2018-11-13T12:54:29.995Z,59.71
2018-11-13T12:57:08.648Z,59.83
2018-11-13T12:59:50.011Z,60.15
2018-11-13T13:02:23.302Z,60.99
2018-11-13T13:04:56.847Z,59.59
2018-11-13T13:07:32.441Z,60.27
2018-11-13T13:10:13.603Z,61.12
2018-11-13T13:12:49.346Z,61.81
2018-11-13T13:15:23.197Z,61.69
2018-11-13T13:17:58.540Z,61.49
2018-11-13T13:20:42.623Z,61.80
2018-11-13T13:23:20.496Z,62.42
2018-11-13T13:25:56.621Z,63.18
2018-11-13T13:28:45.444Z,63.60
2018-11-13T13:31:21.525Z,63.38
2018-11-13T13:34:01.520Z,63.37
2018-11-13T13:36:41.789Z,63.92
2018-11-13T13:39:21.742Z,63.93
2018-11-13T13:41:58.267Z,64.29
2018-11-13T13:44:32.756Z,64.22
2018-11-13T13:47:19.179Z,64.40
2018-11-13T13:49:55.134Z,64.64
2018-11-13T13:52:29.182Z,65.51
2018-11-13T13:55:12.971Z,65.77
2018-11-13T13:57:54.180Z,65.96
2018-11-13T14:00:29.583Z,65.77
2018-11-13T14:03:05.466Z,66.27
2018-11-13T14:05:38.963Z,66.12
2018-11-13T14:08:15.486Z,66.35
2018-11-13T14:11:05.495Z,66.55
2018-11-13T14:13:40.883Z,66.58
2018-11-13T14:16:18.710Z,66.45
2018-11-13T14:19:00.503Z,66.45
2018-11-13T14:21:37.641Z,66.10
2018-11-13T14:24:37.680Z,66.81
2018-11-13T14:27:16.379Z,66.44
2018-11-13T14:29:51.035Z,66.21
2018-11-13T14:32:25.487Z,66.52
2018-11-13T14:35:12.785Z,66.65
2018-11-13T14:37:57.188Z,66.43
2018-11-13T14:40:38.440Z,65.91
2018-11-13T14:43:14.127Z,65.44
2018-11-13T14:46:03.334Z,65.22
2018-11-13T14:48:48.108Z,64.96
2018-11-13T14:51:27.920Z,64.69
2018-11-13T14:54:07.857Z,64.19
2018-11-13T14:56:45.236Z,64.63
2018-11-13T14:59:20.511Z,65.54
2018-11-13T15:02:01.605Z,65.84
2018-11-13T15:04:41.076Z,66.45
2018-11-13T15:07:14.050Z,66.69
2018-11-13T15:09:48.400Z,66.95
2018-11-13T15:12:25.542Z,67.31
2018-11-13T15:15:05.235Z,67.74
2018-11-13T15:17:43.643Z,68.08
2018-11-13T15:20:24.074Z,68.28
2018-11-13T15:23:03.845Z,68.33
2018-11-13T15:25:49.431Z,68.01
2018-11-13T15:28:24.323Z,67.46
2018-11-13T15:31:00.687Z,67.51
2018-11-13T15:33:35.853Z,67.41
2018-11-13T15:36:12.315Z,67.54
2018-11-13T15:38:48.095Z,68.16
2018-11-13T15:41:22.157Z,68.62
2018-11-13T15:43:57.238Z,69.69
2018-11-13T15:46:34.248Z,70.26
2018-11-13T15:49:14.734Z,70.65
2018-11-13T15:51:54.174Z,70.81
2018-11-13T15:54:31.727Z,71.12
2018-11-13T15:57:12.704Z,71.86
2018-11-13T15:59:48.968Z,72.11
2018-11-13T16:02:27.663Z,72.28
2018-11-13T16:05:08.181Z,72.50
2018-11-13T16:07:43.399Z,72.53
2018-11-13T16:10:20.686Z,72.54
2018-11-13T16:12:57.801Z,72.91
2018-11-13T16:15:31.503Z,73.37
2018-11-13T16:18:11.884Z,73.56
2018-11-13T16:20:59.396Z,73.70
2018-11-13T16:23:38.947Z,74.22
2018-11-13T16:26:17.516Z,74.68
2018-11-13T16:28:53.055Z,75.23
2018-11-13T16:31:34.786Z,75.54
2018-11-13T16:34:11.037Z,75.69
2018-11-13T16:36:50.810Z,75.92
2018-11-13T16:39:29.862Z,76.11
2018-11-13T16:42:07.912Z,76.64
2018-11-13T16:44:42.761Z,76.71
2018-11-13T16:47:19.576Z,76.78
2018-11-13T16:50:07.979Z,76.83
2018-11-13T16:52:53.998Z,77.47
2018-11-13T16:55:39.497Z,77.78
2018-11-13T16:58:17.806Z,77.71
2018-11-13T17:01:08.694Z,77.84
2018-11-13T17:03:48.610Z,78.37
2018-11-13T17:06:43.648Z,78.58
2018-11-13T17:09:23.163Z,78.69
2018-11-13T17:12:11.769Z,79.02
2018-11-13T17:14:49.073Z,79.33
2018-11-13T17:17:24.985Z,79.51
2018-11-13T17:20:07.940Z,79.88
2018-11-13T17:22:43.403Z,80.30
2018-11-13T17:25:37.724Z,80.25
2018-11-13T17:28:23.368Z,80.76
2018-11-13T17:31:01.949Z,80.96
2018-11-13T17:33:37.438Z,80.97
2018-11-13T17:36:23.645Z,81.22
2018-11-13T17:38:59.729Z,81.11
2018-11-13T17:41:34.704Z,81.30
2018-11-13T17:44:20.714Z,81.22
2018-11-13T17:46:59.092Z,81.34
2018-11-13T17:49:45.066Z,81.60
2018-11-13T17:52:26.751Z,81.97
2018-11-13T17:55:08.184Z,82.12
2018-11-13T18:00:34.535Z,82.43
2018-11-13T18:03:15.907Z,82.41
2018-11-13T18:05:52.611Z,82.63
2018-11-13T18:08:32.848Z,83.51
2018-11-13T18:11:11.762Z,83.26
2018-11-13T18:13:50.130Z,81.66
2018-11-13T18:16:28.712Z,82.08
2018-11-13T18:19:06.627Z,82.45
2018-11-13T18:21:41.370Z,82.86
2018-11-13T18:24:23.507Z,82.99
2018-11-13T18:27:01.708Z,83.40
2018-11-13T18:29:42.059Z,83.85
2018-11-13T18:32:20.457Z,83.79
2018-11-13T18:34:56.768Z,84.01
2018-11-13T18:37:37.936Z,84.06
2018-11-13T18:40:27.813Z,83.92
2018-11-13T18:43:15.792Z,83.91
2018-11-13T18:45:59.355Z,84.43
2018-11-13T18:48:39.973Z,84.35
2018-11-13T18:51:21.591Z,84.23
2018-11-13T18:54:01.252Z,84.20
2018-11-13T18:56:39.183Z,83.95
2018-11-13T18:59:25.758Z,83.95
2018-11-13T19:02:04.018Z,83.82
2018-11-13T19:04:44.066Z,83.70
2018-11-13T19:07:20.325Z,83.72
2018-11-13T19:09:56.896Z,83.88
2018-11-13T19:12:39.372Z,84.08
2018-11-13T19:15:33.379Z,83.98
2018-11-13T19:18:15.214Z,83.86
2018-11-13T19:20:49.664Z,83.64
2018-11-13T19:23:27.888Z,83.73
2018-11-13T19:26:07.366Z,83.50
2018-11-13T19:28:45.142Z,83.60
2018-11-13T19:31:27.613Z,83.67
2018-11-13T19:34:08.123Z,83.65
2018-11-13T19:36:50.329Z,83.73
2018-11-13T19:39:43.361Z,84.08
2018-11-13T19:42:29.983Z,84.05
2018-11-13T19:45:12.271Z,84.01
2018-11-13T19:47:55.367Z,83.99
2018-11-13T19:50:33.874Z,83.93
2018-11-13T19:53:11.663Z,83.93
2018-11-13T19:55:47.520Z,84.25
2018-11-13T19:58:30.246Z,84.42
2018-11-13T20:01:06.707Z,85.00
2018-11-13T20:03:46.720Z,85.40
2018-11-13T20:06:24.762Z,85.56
2018-11-13T20:09:06.735Z,85.68
2018-11-13T20:11:49.815Z,85.69
2018-11-13T20:14:29.398Z,85.80
2018-11-13T20:17:13.305Z,86.03
2018-11-13T20:19:52.485Z,86.09
2018-11-13T20:22:31.725Z,86.11
2018-11-13T20:25:18.008Z,86.52
2018-11-13T20:27:53.510Z,86.56
2018-11-13T20:30:53.584Z,86.63
2018-11-13T20:33:29.807Z,86.75
2018-11-13T20:36:06.379Z,86.96
2018-11-13T20:38:48.417Z,87.05
2018-11-13T20:41:25.865Z,87.06
2018-11-13T20:44:01.584Z,87.11
2018-11-13T20:46:36.252Z,87.27
2018-11-13T20:49:17.916Z,87.47
2018-11-13T20:51:52.021Z,87.63
2018-11-13T20:54:27.753Z,87.77
2018-11-13T20:57:04.764Z,87.77
2018-11-13T20:59:44.598Z,88.13
2018-11-13T21:02:25.103Z,88.48
2018-11-13T21:05:06.650Z,88.44
2018-11-13T21:07:47.339Z,88.44
2018-11-13T21:10:31.502Z,88.68
2018-11-13T21:13:09.082Z,88.65
2018-11-13T21:15:45.862Z,88.63
2018-11-13T21:18:24.535Z,88.67
2018-11-13T21:20:59.675Z,88.67
2018-11-13T21:23:40.492Z,88.60
2018-11-13T21:26:20.682Z,88.61
2018-11-13T21:29:00.747Z,88.65
2018-11-13T21:31:39.193Z,88.74
2018-11-13T21:34:17.704Z,89.02
2018-11-13T21:36:51.934Z,89.33
2018-11-13T21:39:32.559Z,89.22
2018-11-13T21:42:08.951Z,89.24
2018-11-13T21:44:43.007Z,89.52
2018-11-13T21:47:16.880Z,89.56
2018-11-13T21:49:52.229Z,89.67
2018-11-13T21:52:27.697Z,89.85
2018-11-13T21:55:06.611Z,89.81
2018-11-13T21:57:45.153Z,89.77
2018-11-13T22:00:23.559Z,89.76
2018-11-13T22:03:07.030Z,89.54
2018-11-13T22:05:49.185Z,89.36
2018-11-13T22:08:22.612Z,89.47
2018-11-13T22:10:57.535Z,89.43
2018-11-13T22:13:36.347Z,89.70
2018-11-13T22:16:08.981Z,89.66
2018-11-13T22:18:44.530Z,89.98
2018-11-13T22:21:20.569Z,90.13
2018-11-13T22:23:58.799Z,90.28
2018-11-13T22:26:34.513Z,90.29
2018-11-13T22:29:09.590Z,90.26
2018-11-13T22:31:46.244Z,90.39
2018-11-13T22:34:20.982Z,90.42
2018-11-13T22:37:11.834Z,90.55
2018-11-13T22:39:56.091Z,90.66
2018-11-13T22:42:30.043Z,90.75
2018-11-13T22:45:20.358Z,90.90
2018-11-13T22:47:55.035Z,90.62
2018-11-13T22:50:31.285Z,90.76
2018-11-13T22:53:07.170Z,90.83
2018-11-13T22:55:40.449Z,90.97
2018-11-13T22:58:15.851Z,91.00
2018-11-13T23:00:50.285Z,91.00
2018-11-13T23:03:23.371Z,91.10
2018-11-13T23:05:55.981Z,91.29
2018-11-13T23:08:30.906Z,91.47
2018-11-13T23:11:09.344Z,91.77
2018-11-13T23:13:42.051Z,92.02
2018-11-13T23:16:17.201Z,92.27
2018-11-13T23:18:50.751Z,92.61
2018-11-13T23:21:24.222Z,92.87
2018-11-13T23:23:58.203Z,92.85
2018-11-13T23:26:30.774Z,92.86
2018-11-13T23:29:04.286Z,92.94
2018-11-13T23:31:40.758Z,92.77
2018-11-13T23:34:13.399Z,92.74
2018-11-13T23:36:47.428Z,92.66
2018-11-13T23:39:21.817Z,92.74
2018-11-13T23:42:00.844Z,92.91
2018-11-13T23:44:35.809Z,92.98
2018-11-13T23:47:14.384Z,92.94
2018-11-13T23:49:47.878Z,93.15
2018-11-13T23:52:21.044Z,93.36
2018-11-13T23:54:56.234Z,93.48
2018-11-13T23:57:28.928Z,93.50
